sensor_id;sensor_type;location;lat;lon;timestamp;pressure;altitude;pressure_sealevel;temperature;humidity
19208;BME280;9737;59.466;18.036;2023-04-05T00:00:05;93808.56;;;-6.62;45.46
19208;BME280;9737;59.466;18.036;2023-04-05T00:02:36;93775.34;;;-6.73;46.09
19208;BME280;9737;59.466;18.036;2023-04-05T00:05:08;93741.84;;;-6.81;45.61
19208;BME280;9737;59.466;18.036;2023-04-05T00:07:37;93724.44;;;-6.87;45.71
19208;BME280;9737;59.466;18.036;2023-04-05T00:10:05;93694.31;;;-6.95;45.98
19208;BME280;9737;59.466;18.036;2023-04-05T00:12:34;93655.19;;;-7.06;45.84
19208;BME280;9737;59.466;18.036;2023-04-05T00:15:01;93638.28;;;-7.09;46.04
19208;BME280;9737;59.466;18.036;2023-04-05T00:17:30;93625.72;;;-7.12;45.59
19208;BME280;9737;59.466;18.036;2023-04-05T00:19:58;93630.06;;;-7.12;45.97
19208;BME280;9737;59.466;18.036;2023-04-05T00:22:29;93614.13;;;-7.16;45.78
19208;BME280;9737;59.466;18.036;2023-04-05T00:24:57;93588.22;;;-7.23;45.72
19208;BME280;9737;59.466;18.036;2023-04-05T00:27:25;93573.84;;;-7.25;45.57
19208;BME280;9737;59.466;18.036;2023-04-05T00:29:53;93575.63;;;-7.26;45.97
19208;BME280;9737;59.466;18.036;2023-04-05T00:32:21;93562.44;;;-7.31;46.37
19208;BME280;9737;59.466;18.036;2023-04-05T00:34:49;93576.59;;;-7.27;45.93
19208;BME280;9737;59.466;18.036;2023-04-05T00:37:17;93569.03;;;-7.28;45.91
19208;BME280;9737;59.466;18.036;2023-04-05T00:39:46;93571.63;;;-7.28;45.72
19208;BME280;9737;59.466;18.036;2023-04-05T00:42:14;93572.41;;;-7.28;45.93
19208;BME280;9737;59.466;18.036;2023-04-05T00:44:42;93568.41;;;-7.30;45.96
19208;BME280;9737;59.466;18.036;2023-04-05T00:47:10;93568.25;;;-7.29;45.86
19208;BME280;9737;59.466;18.036;2023-04-05T00:49:39;93562.44;;;-7.31;46.01
19208;BME280;9737;59.466;18.036;2023-04-05T00:52:07;93553.28;;;-7.33;46.13
19208;BME280;9737;59.466;18.036;2023-04-05T00:54:36;93551.50;;;-7.33;45.88
19208;BME280;9737;59.466;18.036;2023-04-05T00:57:06;93563.09;;;-7.29;46.29
19208;BME280;9737;59.466;18.036;2023-04-05T00:59:37;93578.22;;;-7.26;46.15
19208;BME280;9737;59.466;18.036;2023-04-05T01:02:10;93592.53;;;-7.23;46.17
19208;BME280;9737;59.466;18.036;2023-04-05T01:04:43;93594.97;;;-7.22;45.65
19208;BME280;9737;59.466;18.036;2023-04-05T01:07:21;93592.41;;;-7.22;45.83
19208;BME280;9737;59.466;18.036;2023-04-05T01:09:54;93589.16;;;-7.24;46.56
19208;BME280;9737;59.466;18.036;2023-04-05T01:12:27;93587.56;;;-7.25;46.31
19208;BME280;9737;59.466;18.036;2023-04-05T01:14:58;93596.59;;;-7.21;46.25
19208;BME280;9737;59.466;18.036;2023-04-05T01:17:28;93625.72;;;-7.12;46.68
19208;BME280;9737;59.466;18.036;2023-04-05T01:20:05;93636.50;;;-7.08;46.06
19208;BME280;9737;59.466;18.036;2023-04-05T01:26:19;93599.78;;;-7.19;46.52
19208;BME280;9737;59.466;18.036;2023-04-05T01:31:59;93599.00;;;-7.19;46.39
19208;BME280;9737;59.466;18.036;2023-04-05T01:34:36;93603.34;;;-7.20;46.75
19208;BME280;9737;59.466;18.036;2023-04-05T01:37:11;93594.00;;;-7.21;46.24
19208;BME280;9737;59.466;18.036;2023-04-05T01:39:40;93589.16;;;-7.24;46.93
19208;BME280;9737;59.466;18.036;2023-04-05T01:42:09;93597.38;;;-7.20;46.31
19208;BME280;9737;59.466;18.036;2023-04-05T01:44:38;93599.97;;;-7.20;46.32
19208;BME280;9737;59.466;18.036;2023-04-05T01:47:07;93602.38;;;-7.19;46.64
19208;BME280;9737;59.466;18.036;2023-04-05T01:49:35;93612.53;;;-7.17;46.85
19208;BME280;9737;59.466;18.036;2023-04-05T01:52:03;93621.69;;;-7.14;46.68
19208;BME280;9737;59.466;18.036;2023-04-05T01:54:31;93623.31;;;-7.13;46.37
19208;BME280;9737;59.466;18.036;2023-04-05T01:56:59;93609.94;;;-7.17;46.71
19208;BME280;9737;59.466;18.036;2023-04-05T01:59:27;93627.31;;;-7.11;46.65
19208;BME280;9737;59.466;18.036;2023-04-05T02:01:55;93620.09;;;-7.15;46.39
19208;BME280;9737;59.466;18.036;2023-04-05T02:04:25;93604.97;;;-7.19;46.44
19208;BME280;9737;59.466;18.036;2023-04-05T02:06:53;93599.16;;;-7.21;46.45
19208;BME280;9737;59.466;18.036;2023-04-05T02:09:21;93619.13;;;-7.14;46.17
19208;BME280;9737;59.466;18.036;2023-04-05T02:11:49;93624.91;;;-7.12;46.80
19208;BME280;9737;59.466;18.036;2023-04-05T02:14:17;93639.88;;;-7.08;46.94
19208;BME280;9737;59.466;18.036;2023-04-05T02:16:45;93660.81;;;-7.03;47.23
19208;BME280;9737;59.466;18.036;2023-04-05T02:19:13;93671.59;;;-6.99;47.06
19208;BME280;9737;59.466;18.036;2023-04-05T02:21:50;93692.38;;;-6.93;46.99
19208;BME280;9737;59.466;18.036;2023-04-05T02:24:19;93701.91;;;-6.93;47.32
19208;BME280;9737;59.466;18.036;2023-04-05T02:26:47;93725.09;;;-6.85;46.83
19208;BME280;9737;59.466;18.036;2023-04-05T02:29:15;93745.06;;;-6.79;47.26
19208;BME280;9737;59.466;18.036;2023-04-05T02:31:45;93733.34;;;-6.90;46.91
19208;BME280;9737;59.466;18.036;2023-04-05T02:34:15;93761.81;;;-6.75;47.16
19208;BME280;9737;59.466;18.036;2023-04-05T02:36:43;93748.44;;;-6.78;47.35
19208;BME280;9737;59.466;18.036;2023-04-05T02:39:12;93760.19;;;-6.76;47.08
19208;BME280;9737;59.466;18.036;2023-04-05T02:41:40;93755.03;;;-6.76;47.31
19208;BME280;9737;59.466;18.036;2023-04-05T02:44:08;93785.00;;;-6.67;47.66
19208;BME280;9737;59.466;18.036;2023-04-05T02:46:36;93829.34;;;-6.55;47.72
19208;BME280;9737;59.466;18.036;2023-04-05T02:49:05;93820.66;;;-6.62;47.30
19208;BME280;9737;59.466;18.036;2023-04-05T02:51:33;93837.25;;;-6.57;47.26
19208;BME280;9737;59.466;18.036;2023-04-05T02:54:01;93836.13;;;-6.54;47.78
19208;BME280;9737;59.466;18.036;2023-04-05T02:56:30;93846.91;;;-6.50;47.54
19208;BME280;9737;59.466;18.036;2023-04-05T02:58:58;93880.44;;;-6.42;47.52
19208;BME280;9737;59.466;18.036;2023-04-05T03:01:26;93873.66;;;-6.43;47.42
19208;BME280;9737;59.466;18.036;2023-04-05T03:03:55;93859.31;;;-6.46;47.31
19208;BME280;9737;59.466;18.036;2023-04-05T03:06:23;93888.81;;;-6.40;47.68
19208;BME280;9737;59.466;18.036;2023-04-05T03:08:51;93887.22;;;-6.41;47.53
19208;BME280;9737;59.466;18.036;2023-04-05T03:11:21;93901.25;;;-6.36;47.64
19208;BME280;9737;59.466;18.036;2023-04-05T03:13:50;93962.38;;;-6.20;47.67
19208;BME280;9737;59.466;18.036;2023-04-05T03:16:18;93990.94;;;-6.13;47.56
19208;BME280;9737;59.466;18.036;2023-04-05T03:18:47;93969.16;;;-6.19;47.97
19208;BME280;9737;59.466;18.036;2023-04-05T03:21:15;93934.00;;;-6.28;47.72
19208;BME280;9737;59.466;18.036;2023-04-05T03:23:43;93902.38;;;-6.38;47.62
19208;BME280;9737;59.466;18.036;2023-04-05T03:26:14;93912.25;;;-6.34;47.87
19208;BME280;9737;59.466;18.036;2023-04-05T03:28:42;93890.59;;;-6.41;48.03
19208;BME280;9737;59.466;18.036;2023-04-05T03:31:12;93878.84;;;-6.43;48.13
19208;BME280;9737;59.466;18.036;2023-04-05T03:33:42;93889.63;;;-6.40;47.78
19208;BME280;9737;59.466;18.036;2023-04-05T03:36:10;93869.66;;;-6.46;47.93
19208;BME280;9737;59.466;18.036;2023-04-05T03:38:43;93842.09;;;-6.53;47.96
19208;BME280;9737;59.466;18.036;2023-04-05T03:41:11;93817.91;;;-6.61;47.85
19208;BME280;9737;59.466;18.036;2023-04-05T03:43:39;93800.31;;;-6.65;47.98
19208;BME280;9737;59.466;18.036;2023-04-05T03:46:07;93776.16;;;-6.72;48.08
19208;BME280;9737;59.466;18.036;2023-04-05T03:48:37;93763.59;;;-6.75;47.88
19208;BME280;9737;59.466;18.036;2023-04-05T03:51:04;93748.59;;;-6.80;48.48
19208;BME280;9737;59.466;18.036;2023-04-05T03:53:33;93741.84;;;-6.81;48.40
19208;BME280;9737;59.466;18.036;2023-04-05T03:56:01;93747.81;;;-6.80;47.92
19208;BME280;9737;59.466;18.036;2023-04-05T03:58:29;93751.19;;;-6.80;47.92
19208;BME280;9737;59.466;18.036;2023-04-05T04:00:57;93789.34;;;-6.67;47.87
19208;BME280;9737;59.466;18.036;2023-04-05T04:03:25;93805.66;;;-6.67;48.02
19208;BME280;9737;59.466;18.036;2023-04-05T04:05:55;93798.56;;;-6.65;48.33
19208;BME280;9737;59.466;18.036;2023-04-05T04:08:24;93798.56;;;-6.65;48.16
19208;BME280;9737;59.466;18.036;2023-04-05T04:10:52;93833.69;;;-6.56;48.16
19208;BME280;9737;59.466;18.036;2023-04-05T04:13:19;93889.63;;;-6.40;48.31
19208;BME280;9737;59.466;18.036;2023-04-05T04:15:47;93925.63;;;-6.30;48.52
19208;BME280;9737;59.466;18.036;2023-04-05T04:18:15;93973.38;;;-6.18;48.65
19208;BME280;9737;59.466;18.036;2023-04-05T04:20:43;93966.75;;;-6.20;48.34
19208;BME280;9737;59.466;18.036;2023-04-05T04:23:12;93963.19;;;-6.19;48.65
19208;BME280;9737;59.466;18.036;2023-04-05T04:25:40;94011.78;;;-6.07;48.68
19208;BME280;9737;59.466;18.036;2023-04-05T04:28:11;94036.78;;;-5.99;48.47
19208;BME280;9737;59.466;18.036;2023-04-05T04:30:45;94066.34;;;-5.94;48.75
19208;BME280;9737;59.466;18.036;2023-04-05T04:33:13;94102.78;;;-5.80;49.01
19208;BME280;9737;59.466;18.036;2023-04-05T04:35:43;94140.59;;;-5.71;48.53
19208;BME280;9737;59.466;18.036;2023-04-05T04:38:13;94171.59;;;-5.63;49.20
19208;BME280;9737;59.466;18.036;2023-04-05T04:40:44;94186.78;;;-5.60;48.79
19208;BME280;9737;59.466;18.036;2023-04-05T04:43:16;94211.66;;;-5.51;48.85
19208;BME280;9737;59.466;18.036;2023-04-05T04:45:45;94259.34;;;-5.37;49.17
19208;BME280;9737;59.466;18.036;2023-04-05T04:48:14;94298.94;;;-5.28;49.13
19208;BME280;9737;59.466;18.036;2023-04-05T04:50:43;94334.88;;;-5.17;49.24
19208;BME280;9737;59.466;18.036;2023-04-05T04:53:12;94365.91;;;-5.09;49.06
19208;BME280;9737;59.466;18.036;2023-04-05T04:55:44;94468.97;;;-4.80;49.64
19208;BME280;9737;59.466;18.036;2023-04-05T04:58:15;94523.53;;;-4.65;49.49
19208;BME280;9737;59.466;18.036;2023-04-05T05:00:43;94563.06;;;-4.55;49.72
19208;BME280;9737;59.466;18.036;2023-04-05T05:03:12;94596.75;;;-4.47;49.59
19208;BME280;9737;59.466;18.036;2023-04-05T05:05:43;94617.78;;;-4.42;49.80
19208;BME280;9737;59.466;18.036;2023-04-05T05:08:11;94639.50;;;-4.35;49.96
19208;BME280;9737;59.466;18.036;2023-04-05T05:10:39;94669.66;;;-4.26;49.72
19208;BME280;9737;59.466;18.036;2023-04-05T05:13:09;94737.09;;;-4.10;49.84
19208;BME280;9737;59.466;18.036;2023-04-05T05:15:38;94794.19;;;-3.93;49.82
19208;BME280;9737;59.466;18.036;2023-04-05T05:18:06;94852.06;;;-3.77;49.85
19208;BME280;9737;59.466;18.036;2023-04-05T05:20:34;94895.75;;;-3.64;50.09
19208;BME280;9737;59.466;18.036;2023-04-05T05:23:03;94945.41;;;-3.51;50.25
19208;BME280;9737;59.466;18.036;2023-04-05T05:25:31;94986.00;;;-3.41;50.17
19208;BME280;9737;59.466;18.036;2023-04-05T05:27:59;95038.94;;;-3.26;50.22
19208;BME280;9737;59.466;18.036;2023-04-05T05:30:28;95091.94;;;-3.11;50.20
19208;BME280;9737;59.466;18.036;2023-04-05T05:32:57;95132.38;;;-3.00;50.39
19208;BME280;9737;59.466;18.036;2023-04-05T05:35:25;95139.06;;;-2.98;50.45
19208;BME280;9737;59.466;18.036;2023-04-05T05:37:53;95196.28;;;-2.82;50.66
19208;BME280;9737;59.466;18.036;2023-04-05T05:40:21;95217.59;;;-2.78;50.48
19208;BME280;9737;59.466;18.036;2023-04-05T05:42:49;95230.41;;;-2.76;50.78
19208;BME280;9737;59.466;18.036;2023-04-05T05:45:17;95248.63;;;-2.68;50.89
19208;BME280;9737;59.466;18.036;2023-04-05T05:47:46;95278.25;;;-2.61;51.01
19208;BME280;9737;59.466;18.036;2023-04-05T05:50:14;95320.41;;;-2.50;50.81
19208;BME280;9737;59.466;18.036;2023-04-05T05:52:43;95351.63;;;-2.41;51.03
19208;BME280;9737;59.466;18.036;2023-04-05T05:55:10;95377.00;;;-2.35;51.11
19208;BME280;9737;59.466;18.036;2023-04-05T05:57:38;95415.94;;;-2.26;51.00
19208;BME280;9737;59.466;18.036;2023-04-05T06:00:07;95435.97;;;-2.18;51.15
19208;BME280;9737;59.466;18.036;2023-04-05T06:02:36;95482.53;;;-2.07;50.99
19208;BME280;9737;59.466;18.036;2023-04-05T06:05:06;95527.34;;;-1.95;51.59
19208;BME280;9737;59.466;18.036;2023-04-05T06:07:35;95545.94;;;-1.90;51.44
19208;BME280;9737;59.466;18.036;2023-04-05T06:10:04;95557.50;;;-1.84;51.69
19208;BME280;9737;59.466;18.036;2023-04-05T06:12:33;95613.41;;;-1.71;51.66
19208;BME280;9737;59.466;18.036;2023-04-05T06:15:01;95665.91;;;-1.58;51.80
19208;BME280;9737;59.466;18.036;2023-04-05T06:17:29;95700.78;;;-1.50;51.82
19208;BME280;9737;59.466;18.036;2023-04-05T06:19:57;95735.41;;;-1.40;51.90
19208;BME280;9737;59.466;18.036;2023-04-05T06:22:26;95731.31;;;-1.43;51.98
19208;BME280;9737;59.466;18.036;2023-04-05T06:24:55;95789.56;;;-1.26;52.03
19208;BME280;9737;59.466;18.036;2023-04-05T06:27:23;95840.19;;;-1.11;52.23
19208;BME280;9737;59.466;18.036;2023-04-05T06:29:50;95895.34;;;-0.98;51.86
19208;BME280;9737;59.466;18.036;2023-04-05T06:32:20;95946.97;;;-0.83;52.14
19208;BME280;9737;59.466;18.036;2023-04-05T06:34:48;95957.09;;;-0.80;52.13
19208;BME280;9737;59.466;18.036;2023-04-05T06:37:16;96013.94;;;-0.66;52.70
19208;BME280;9737;59.466;18.036;2023-04-05T06:39:46;96051.06;;;-0.54;52.57
19208;BME280;9737;59.466;18.036;2023-04-05T06:42:14;96118.09;;;-0.37;52.84
19208;BME280;9737;59.466;18.036;2023-04-05T06:44:43;96175.00;;;-0.23;52.47
19208;BME280;9737;59.466;18.036;2023-04-05T06:47:12;96247.97;;;-0.04;52.69
19208;BME280;9737;59.466;18.036;2023-04-05T06:49:40;96346.22;;;0.25;52.85
19208;BME280;9737;59.466;18.036;2023-04-05T06:52:07;96459.09;;;0.56;52.87
19208;BME280;9737;59.466;18.036;2023-04-05T06:54:36;96532.50;;;0.72;53.26
19208;BME280;9737;59.466;18.036;2023-04-05T06:57:06;96574.00;;;0.85;53.34
19208;BME280;9737;59.466;18.036;2023-04-05T06:59:34;96675.19;;;1.12;53.32
19208;BME280;9737;59.466;18.036;2023-04-05T07:02:01;96755.28;;;1.32;53.31
19208;BME280;9737;59.466;18.036;2023-04-05T07:04:29;96716.22;;;1.21;53.35
19208;BME280;9737;59.466;18.036;2023-04-05T07:07:02;96770.72;;;1.35;53.79
19208;BME280;9737;59.466;18.036;2023-04-05T07:09:31;96825.25;;;1.49;53.71
19208;BME280;9737;59.466;18.036;2023-04-05T07:11:59;96935.16;;;1.78;53.89
19208;BME280;9737;59.466;18.036;2023-04-05T07:14:29;97036.59;;;2.05;53.97
19208;BME280;9737;59.466;18.036;2023-04-05T07:16:58;97129.50;;;2.30;54.02
19208;BME280;9737;59.466;18.036;2023-04-05T07:19:26;97171.19;;;2.43;54.27
19208;BME280;9737;59.466;18.036;2023-04-05T07:21:54;97269.59;;;2.66;54.08
19208;BME280;9737;59.466;18.036;2023-04-05T07:24:22;97410.59;;;3.03;54.55
19208;BME280;9737;59.466;18.036;2023-04-05T07:26:50;97407.69;;;3.06;54.36
19208;BME280;9737;59.466;18.036;2023-04-05T07:29:18;97401.06;;;3.02;54.68
19208;BME280;9737;59.466;18.036;2023-04-05T07:31:47;97370.53;;;2.91;54.48
19208;BME280;9737;59.466;18.036;2023-04-05T07:34:15;97397.06;;;2.98;54.63
19208;BME280;9737;59.466;18.036;2023-04-05T07:36:42;97318.31;;;2.78;54.49
19208;BME280;9737;59.466;18.036;2023-04-05T07:39:10;97207.63;;;2.46;54.66
19208;BME280;9737;59.466;18.036;2023-04-05T07:41:38;97161.25;;;2.37;54.54
19208;BME280;9737;59.466;18.036;2023-04-05T07:44:09;97142.75;;;2.29;54.80
19208;BME280;9737;59.466;18.036;2023-04-05T07:46:37;97059.34;;;2.05;54.66
19208;BME280;9737;59.466;18.036;2023-04-05T07:49:15;96895.47;;;1.64;54.60
19208;BME280;9737;59.466;18.036;2023-04-05T07:51:43;96814.78;;;1.40;54.41
19208;BME280;9737;59.466;18.036;2023-04-05T07:54:11;96744.72;;;1.24;54.73
19208;BME280;9737;59.466;18.036;2023-04-05T07:56:39;96722.00;;;1.15;54.54
19208;BME280;9737;59.466;18.036;2023-04-05T07:59:08;96698.22;;;1.08;54.42
19208;BME280;9737;59.466;18.036;2023-04-05T08:01:37;96730.28;;;1.20;54.85
19208;BME280;9737;59.466;18.036;2023-04-05T08:04:05;96819.72;;;1.43;54.67
19208;BME280;9737;59.466;18.036;2023-04-05T08:06:35;96863.25;;;1.53;55.21
19208;BME280;9737;59.466;18.036;2023-04-05T08:09:03;96919.44;;;1.69;54.99
19208;BME280;9737;59.466;18.036;2023-04-05T08:11:31;96942.59;;;1.73;55.18
19208;BME280;9737;59.466;18.036;2023-04-05T08:13:59;96982.56;;;1.85;55.31
19208;BME280;9737;59.466;18.036;2023-04-05T08:16:27;97051.06;;;2.00;55.07
19208;BME280;9737;59.466;18.036;2023-04-05T08:18:55;97112.97;;;2.20;55.26
19208;BME280;9737;59.466;18.036;2023-04-05T08:21:22;97148.00;;;2.29;55.21
19208;BME280;9737;59.466;18.036;2023-04-05T08:23:52;97219.75;;;2.47;55.38
19208;BME280;9737;59.466;18.036;2023-04-05T08:26:20;97308.38;;;2.72;55.47
19208;BME280;9737;59.466;18.036;2023-04-05T08:28:48;97375.09;;;2.89;55.62
19208;BME280;9737;59.466;18.036;2023-04-05T08:31:16;97339.31;;;2.78;55.61
19208;BME280;9737;59.466;18.036;2023-04-05T08:33:44;97345.94;;;2.83;55.60
19208;BME280;9737;59.466;18.036;2023-04-05T08:36:12;97400.94;;;2.94;55.72
19208;BME280;9737;59.466;18.036;2023-04-05T08:38:40;97429.25;;;3.00;55.96
19208;BME280;9737;59.466;18.036;2023-04-05T08:41:16;97450.38;;;3.08;55.84
19208;BME280;9737;59.466;18.036;2023-04-05T08:43:55;97426.63;;;3.00;55.71
19208;BME280;9737;59.466;18.036;2023-04-05T08:46:24;97362.50;;;2.83;55.83
19208;BME280;9737;59.466;18.036;2023-04-05T08:48:52;97349.81;;;2.78;56.03
19208;BME280;9737;59.466;18.036;2023-04-05T08:51:22;97252.31;;;2.54;56.10
19208;BME280;9737;59.466;18.036;2023-04-05T08:53:50;97225.28;;;2.44;55.83
19208;BME280;9737;59.466;18.036;2023-04-05T08:56:20;97262.81;;;2.54;55.91
19208;BME280;9737;59.466;18.036;2023-04-05T08:58:56;97244.88;;;2.49;56.22
19208;BME280;9737;59.466;18.036;2023-04-05T09:01:26;97242.13;;;2.51;55.90
19208;BME280;9737;59.466;18.036;2023-04-05T09:03:56;97302.03;;;2.65;56.09
19208;BME280;9737;59.466;18.036;2023-04-05T09:06:26;97303.69;;;2.66;56.26
19208;BME280;9737;59.466;18.036;2023-04-05T09:08:59;97370.66;;;2.80;56.21
19208;BME280;9737;59.466;18.036;2023-04-05T09:11:32;97408.13;;;2.92;56.36
19208;BME280;9737;59.466;18.036;2023-04-05T09:14:01;97454.13;;;3.05;56.46
19208;BME280;9737;59.466;18.036;2023-04-05T09:16:31;97539.69;;;3.27;56.54
19208;BME280;9737;59.466;18.036;2023-04-05T09:19:00;97667.22;;;3.60;56.40
19208;BME280;9737;59.466;18.036;2023-04-05T09:21:28;97793.75;;;3.96;56.96
19208;BME280;9737;59.466;18.036;2023-04-05T09:23:56;97840.28;;;4.05;56.88
19208;BME280;9737;59.466;18.036;2023-04-05T09:26:24;97904.56;;;4.22;56.58
19208;BME280;9737;59.466;18.036;2023-04-05T09:28:54;97914.81;;;4.25;56.72
19208;BME280;9737;59.466;18.036;2023-04-05T09:31:28;97938.91;;;4.30;57.26
19208;BME280;9737;59.466;18.036;2023-04-05T09:33:58;97980.94;;;4.41;56.82
19208;BME280;9737;59.466;18.036;2023-04-05T09:36:26;98105.19;;;4.75;57.36
19208;BME280;9737;59.466;18.036;2023-04-05T09:39:04;98191.09;;;4.97;57.35
19208;BME280;9737;59.466;18.036;2023-04-05T09:41:35;98304.41;;;5.27;57.39
19208;BME280;9737;59.466;18.036;2023-04-05T09:44:04;98169.84;;;4.89;57.50
19208;BME280;9737;59.466;18.036;2023-04-05T09:46:34;98058.00;;;4.62;57.06
19208;BME280;9737;59.466;18.036;2023-04-05T09:49:04;98126.81;;;4.79;57.24
19208;BME280;9737;59.466;18.036;2023-04-05T09:51:36;98157.63;;;4.88;57.46
19208;BME280;9737;59.466;18.036;2023-04-05T09:54:06;98363.00;;;5.41;57.19
19208;BME280;9737;59.466;18.036;2023-04-05T09:56:35;98380.22;;;5.45;57.23
19208;BME280;9737;59.466;18.036;2023-04-05T09:59:07;98372.47;;;5.43;57.19
19208;BME280;9737;59.466;18.036;2023-04-05T10:01:37;98243.00;;;5.06;57.17
19208;BME280;9737;59.466;18.036;2023-04-05T10:04:07;98209.41;;;4.98;57.69
19208;BME280;9737;59.466;18.036;2023-04-05T10:06:36;98154.44;;;4.84;57.89
19208;BME280;9737;59.466;18.036;2023-04-05T10:09:05;98140.81;;;4.79;57.49
19208;BME280;9737;59.466;18.036;2023-04-05T10:11:35;98013.91;;;4.45;57.67
19208;BME280;9737;59.466;18.036;2023-04-05T10:14:04;98059.25;;;4.58;57.32
19208;BME280;9737;59.466;18.036;2023-04-05T10:16:40;98121.13;;;4.74;57.67
19208;BME280;9737;59.466;18.036;2023-04-05T10:19:15;98036.78;;;4.54;57.64
19208;BME280;9737;59.466;18.036;2023-04-05T10:21:44;98007.94;;;4.43;57.24
19208;BME280;9737;59.466;18.036;2023-04-05T10:24:26;98060.22;;;4.57;57.13
19208;BME280;9737;59.466;18.036;2023-04-05T10:27:04;98009.63;;;4.44;57.50
19208;BME280;9737;59.466;18.036;2023-04-05T10:29:38;97969.38;;;4.32;57.63
19208;BME280;9737;59.466;18.036;2023-04-05T10:32:17;97693.38;;;3.62;57.22
19208;BME280;9737;59.466;18.036;2023-04-05T10:34:56;97513.69;;;3.15;57.34
19208;BME280;9737;59.466;18.036;2023-04-05T10:37:32;97405.34;;;2.84;57.56
19208;BME280;9737;59.466;18.036;2023-04-05T10:40:03;97511.19;;;3.13;57.23
19208;BME280;9737;59.466;18.036;2023-04-05T10:42:39;97565.97;;;3.27;57.05
19208;BME280;9737;59.466;18.036;2023-04-05T10:45:11;97568.44;;;3.29;57.33
19208;BME280;9737;59.466;18.036;2023-04-05T10:47:46;97617.13;;;3.42;57.30
19208;BME280;9737;59.466;18.036;2023-04-05T10:50:20;97609.09;;;3.34;57.24
19208;BME280;9737;59.466;18.036;2023-04-05T10:52:50;97672.19;;;3.54;57.34
19208;BME280;9737;59.466;18.036;2023-04-05T10:55:19;97690.03;;;3.60;57.41
19208;BME280;9737;59.466;18.036;2023-04-05T10:57:48;97658.38;;;3.52;57.51
19208;BME280;9737;59.466;18.036;2023-04-05T11:00:17;97611.31;;;3.39;57.07
19208;BME280;9737;59.466;18.036;2023-04-05T11:02:48;97558.22;;;3.26;57.40
19208;BME280;9737;59.466;18.036;2023-04-05T11:05:31;97336.97;;;2.66;57.25
19208;BME280;9737;59.466;18.036;2023-04-05T11:08:03;97288.34;;;2.52;56.98
19208;BME280;9737;59.466;18.036;2023-04-05T11:10:34;97156.72;;;2.20;57.33
19208;BME280;9737;59.466;18.036;2023-04-05T11:13:09;97054.38;;;1.92;57.08
19208;BME280;9737;59.466;18.036;2023-04-05T11:15:39;97029.03;;;1.83;57.01
19208;BME280;9737;59.466;18.036;2023-04-05T11:18:09;96983.66;;;1.73;56.86
19208;BME280;9737;59.466;18.036;2023-04-05T11:20:40;97028.91;;;1.84;57.09
19208;BME280;9737;59.466;18.036;2023-04-05T11:23:09;97023.13;;;1.81;57.06
19208;BME280;9737;59.466;18.036;2023-04-05T11:25:38;96985.59;;;1.71;56.98
19208;BME280;9737;59.466;18.036;2023-04-05T11:28:07;97012.91;;;1.78;57.22
19208;BME280;9737;59.466;18.036;2023-04-05T11:30:45;96971.00;;;1.68;57.15
19208;BME280;9737;59.466;18.036;2023-04-05T11:33:52;96936.84;;;1.60;57.29
19208;BME280;9737;59.466;18.036;2023-04-05T11:36:29;96976.25;;;1.68;57.00
19208;BME280;9737;59.466;18.036;2023-04-05T11:39:27;96909.72;;;1.51;56.83
19208;BME280;9737;59.466;18.036;2023-04-05T11:41:58;96937.81;;;1.59;57.14
19208;BME280;9737;59.466;18.036;2023-04-05T11:44:28;96984.78;;;1.70;57.05
19208;BME280;9737;59.466;18.036;2023-04-05T11:46:57;96953.09;;;1.64;57.15
19208;BME280;9737;59.466;18.036;2023-04-05T11:49:27;96886.72;;;1.45;57.03
19208;BME280;9737;59.466;18.036;2023-04-05T11:51:54;96871.25;;;1.42;56.91
19208;BME280;9737;59.466;18.036;2023-04-05T11:54:30;96869.63;;;1.41;56.91
19208;BME280;9737;59.466;18.036;2023-04-05T11:56:58;96827.91;;;1.30;57.07
19208;BME280;9737;59.466;18.036;2023-04-05T11:59:30;96849.25;;;1.35;56.99
19208;BME280;9737;59.466;18.036;2023-04-05T12:02:00;96903.78;;;1.49;57.24
19208;BME280;9737;59.466;18.036;2023-04-05T12:04:30;96987.25;;;1.72;57.21
19208;BME280;9737;59.466;18.036;2023-04-05T12:07:12;96992.50;;;1.72;57.24
19208;BME280;9737;59.466;18.036;2023-04-05T12:10:04;97032.34;;;1.85;56.91
19208;BME280;9737;59.466;18.036;2023-04-05T12:12:38;97105.25;;;1.99;57.39
19208;BME280;9737;59.466;18.036;2023-04-05T12:15:07;97098.91;;;2.02;57.37
19208;BME280;9737;59.466;18.036;2023-04-05T12:17:44;97124.44;;;2.09;57.17
19208;BME280;9737;59.466;18.036;2023-04-05T12:20:15;97179.19;;;2.22;57.21
19208;BME280;9737;59.466;18.036;2023-04-05T12:22:46;97166.22;;;2.21;57.33
19208;BME280;9737;59.466;18.036;2023-04-05T12:25:15;97165.41;;;2.20;57.48
19208;BME280;9737;59.466;18.036;2023-04-05T12:27:44;96996.09;;;1.71;57.19
19208;BME280;9737;59.466;18.036;2023-04-05T12:30:15;97012.91;;;1.78;57.35
19208;BME280;9737;59.466;18.036;2023-04-05T12:32:44;97080.03;;;1.98;57.57
19208;BME280;9737;59.466;18.036;2023-04-05T12:35:18;97142.22;;;2.15;57.58
19208;BME280;9737;59.466;18.036;2023-04-05T12:37:47;97151.75;;;2.16;57.48
19208;BME280;9737;59.466;18.036;2023-04-05T12:40:20;97149.56;;;2.12;57.66
19208;BME280;9737;59.466;18.036;2023-04-05T12:42:48;97159.63;;;2.16;57.58
19208;BME280;9737;59.466;18.036;2023-04-05T12:45:16;97170.78;;;2.18;57.61
19208;BME280;9737;59.466;18.036;2023-04-05T12:47:52;97219.47;;;2.31;57.75
19208;BME280;9737;59.466;18.036;2023-04-05T12:50:26;97261.03;;;2.45;57.91
19208;BME280;9737;59.466;18.036;2023-04-05T12:52:56;97281.59;;;2.49;57.60
19208;BME280;9737;59.466;18.036;2023-04-05T12:55:25;97279.13;;;2.48;57.43
19208;BME280;9737;59.466;18.036;2023-04-05T12:57:55;97255.09;;;2.43;57.62
19208;BME280;9737;59.466;18.036;2023-04-05T13:00:26;97257.72;;;2.43;57.86
19208;BME280;9737;59.466;18.036;2023-04-05T13:02:56;97252.63;;;2.41;57.80
19208;BME280;9737;59.466;18.036;2023-04-05T13:05:26;97184.59;;;2.21;57.76
19208;BME280;9737;59.466;18.036;2023-04-05T13:07:55;97210.78;;;2.30;57.96
19208;BME280;9737;59.466;18.036;2023-04-05T13:10:23;97187.91;;;2.23;57.68
19208;BME280;9737;59.466;18.036;2023-04-05T13:12:52;97186.91;;;2.24;57.84
19208;BME280;9737;59.466;18.036;2023-04-05T13:15:19;97188.56;;;2.25;57.72
19208;BME280;9737;59.466;18.036;2023-04-05T13:17:47;97240.91;;;2.36;58.01
19208;BME280;9737;59.466;18.036;2023-04-05T13:20:18;97231.38;;;2.35;57.96
19208;BME280;9737;59.466;18.036;2023-04-05T13:22:47;97223.66;;;2.33;58.00
19208;BME280;9737;59.466;18.036;2023-04-05T13:25:15;97166.78;;;2.14;57.94